Time;durP1;ratioP1;P1;durP2;ratioP2;P2;SDS_P1;SDS_P2;PMS_P1;PMS_P2;Temp;Humidity;BMP_temperature;BMP_pressure;BME280_temperature;BME280_humidity;BME280_pressure;Samples;Min_cycle;Max_cycle;Signal;HPM_P1;HPM_P2
2022/01/19 00:01:47;;;;;;;24.15;13.20;;;6.30;99.90;;;;;;5122698;27;20203;-75
2022/01/19 00:04:15;;;;;;;35.65;14.25;;;6.30;99.90;;;;;;5120342;27;20502;-77
2022/01/19 00:06:43;;;;;;;21.63;13.68;;;6.30;99.90;;;;;;5121054;28;20723;-76
2022/01/19 00:09:11;;;;;;;27.92;14.93;;;6.40;99.90;;;;;;5120581;27;20580;-74
2022/01/19 00:11:39;;;;;;;25.73;15.50;;;6.40;99.90;;;;;;5120219;27;20206;-74
2022/01/19 00:14:08;;;;;;;29.17;16.35;;;6.40;99.90;;;;;;5120244;28;20460;-76
2022/01/19 00:16:36;;;;;;;36.55;21.55;;;6.50;99.90;;;;;;5119454;28;20740;-74
2022/01/19 00:19:04;;;;;;;44.45;19.95;;;6.40;99.90;;;;;;5119451;27;20206;-75
2022/01/19 00:21:33;;;;;;;37.47;19.52;;;6.40;99.90;;;;;;5120717;27;20195;-74
2022/01/19 00:24:01;;;;;;;31.40;17.75;;;6.30;99.90;;;;;;5119105;27;20195;-74
2022/01/19 00:26:34;;;;;;;30.73;18.33;;;6.30;99.90;;;;;;5120116;28;20229;-75
2022/01/19 00:29:02;;;;;;;34.30;18.88;;;6.30;99.90;;;;;;5118925;27;20579;-74
2022/01/19 00:31:32;;;;;;;34.42;18.17;;;6.30;99.90;;;;;;5119502;28;20202;-75
2022/01/19 00:33:59;;;;;;;29.27;17.48;;;6.30;99.90;;;;;;5120618;27;20343;-74
2022/01/19 00:36:29;;;;;;;31.77;18.50;;;6.20;99.90;;;;;;5124155;27;20235;-74
2022/01/19 00:38:56;;;;;;;28.85;16.83;;;6.20;99.90;;;;;;5124727;27;20465;-76
2022/01/19 00:41:24;;;;;;;30.33;17.08;;;6.20;99.90;;;;;;5123309;27;20409;-73
2022/01/19 00:43:52;;;;;;;37.22;18.98;;;6.20;99.90;;;;;;5137931;27;20297;-72
2022/01/19 00:46:20;;;;;;;37.22;20.65;;;6.20;99.90;;;;;;5141304;27;20623;-73
2022/01/19 00:48:49;;;;;;;32.25;19.83;;;6.20;99.90;;;;;;5122802;27;20244;-72
2022/01/19 00:51:17;;;;;;;34.05;19.73;;;6.20;99.90;;;;;;5122322;27;20211;-72
2022/01/19 00:53:45;;;;;;;36.92;20.77;;;6.10;99.90;;;;;;5123272;27;20202;-72
2022/01/19 00:56:13;;;;;;;37.10;21.13;;;6.10;99.90;;;;;;5123012;27;20198;-73
2022/01/19 00:58:41;;;;;;;29.30;17.67;;;6.10;99.90;;;;;;5122707;27;20661;-73
2022/01/19 01:01:09;;;;;;;31.27;18.40;;;6.10;99.90;;;;;;5122622;27;20725;-74
2022/01/19 01:03:37;;;;;;;25.25;15.90;;;6.10;99.90;;;;;;5124068;27;20206;-72
2022/01/19 01:06:07;;;;;;;27.45;16.95;;;6.00;99.90;;;;;;5121885;27;20199;-74
2022/01/19 01:08:35;;;;;;;25.95;16.33;;;6.00;99.90;;;;;;5121783;27;20248;-76
2022/01/19 01:11:03;;;;;;;31.95;16.55;;;6.00;99.90;;;;;;5121815;27;20693;-75
2022/01/19 01:15:25;;;;;;;35.03;17.30;;;5.90;99.90;;;;;;5122838;27;20282;-75
2022/01/19 01:16:31;;;;;;;34.03;18.05;;;6.00;99.90;;;;;;5122357;27;20219;-75
2022/01/19 01:18:59;;;;;;;34.55;17.52;;;6.00;99.90;;;;;;5122568;27;20195;-74
2022/01/19 01:21:37;;;;;;;33.28;18.20;;;6.00;99.90;;;;;;5122093;27;20450;-75
2022/01/19 01:24:05;;;;;;;39.13;19.75;;;5.90;99.90;;;;;;5123006;27;20828;-75
2022/01/19 01:26:33;;;;;;;36.35;19.42;;;5.90;99.90;;;;;;5122237;27;20725;-75
2022/01/19 01:29:01;;;;;;;36.95;19.50;;;6.00;99.90;;;;;;5121780;27;20199;-75
2022/01/19 01:31:29;;;;;;;38.85;22.02;;;6.00;99.90;;;;;;5122521;27;20263;-74
2022/01/19 01:33:57;;;;;;;39.13;22.60;;;6.10;99.90;;;;;;5122596;27;20218;-75
2022/01/19 01:36:25;;;;;;;43.85;21.58;;;6.10;99.90;;;;;;5122372;27;20709;-70
2022/01/19 01:38:54;;;;;;;38.78;23.05;;;6.10;99.90;;;;;;5122349;27;20685;-68
2022/01/19 01:41:22;;;;;;;40.58;21.90;;;6.10;99.90;;;;;;5122026;27;20250;-69
2022/01/19 01:43:49;;;;;;;40.83;23.20;;;6.10;99.90;;;;;;5122484;27;20229;-68
2022/01/19 01:46:30;;;;;;;48.97;25.77;;;6.20;99.90;;;;;;5121916;27;20225;-69
2022/01/19 01:48:58;;;;;;;46.55;26.30;;;6.20;99.90;;;;;;5122416;27;20658;-68
2022/01/19 01:54:13;;;;;;;51.97;26.30;;;6.10;99.90;;;;;;5125111;27;20203;-69
2022/01/19 01:56:41;;;;;;;52.42;28.75;;;6.10;99.90;;;;;;5124031;27;20793;-70
2022/01/19 01:59:10;;;;;;;46.58;26.10;;;6.10;99.90;;;;;;5125275;27;20720;-69
2022/01/19 02:01:40;;;;;;;55.00;27.92;;;6.10;99.90;;;;;;5125699;27;20211;-70
2022/01/19 02:04:08;;;;;;;56.38;29.17;;;6.00;99.90;;;;;;5123754;27;20287;-75
2022/01/19 02:06:55;;;;;;;45.00;27.08;;;5.90;99.90;;;;;;5124070;27;20215;-69
2022/01/19 02:09:30;;;;;;;49.70;26.08;;;5.80;99.90;;;;;;5123039;27;20700;-70
2022/01/19 02:23:13;;;;;;;44.08;23.60;;;5.70;99.90;;;;;;5122220;27;20199;-77
2022/01/19 02:25:43;;;;;;;42.78;22.60;;;5.80;99.90;;;;;;5121309;27;20183;-76
2022/01/19 02:36:37;;;;;;;48.65;25.33;;;5.60;99.90;;;;;;5122567;27;20586;-76
2022/01/19 02:41:51;;;;;;;46.63;25.63;;;5.60;99.90;;;;;;5124708;27;20222;-78
2022/01/19 02:44:34;;;;;;;50.28;24.85;;;5.70;99.90;;;;;;5126228;27;20209;-79
2022/01/19 02:49:50;;;;;;;65.65;29.50;;;5.60;99.90;;;;;;5128401;27;20195;-76
2022/01/19 02:52:22;;;;;;;49.60;26.38;;;5.60;99.90;;;;;;5122211;27;20207;-75
2022/01/19 02:54:51;;;;;;;51.53;26.75;;;5.60;99.90;;;;;;5125982;27;20183;-78
2022/01/19 02:57:24;;;;;;;50.22;25.80;;;5.60;99.90;;;;;;5124224;27;20225;-78
2022/01/19 03:06:26;;;;;;;44.05;23.33;;;5.50;99.90;;;;;;5122250;27;20236;-79
2022/01/19 03:11:02;;;;;;;31.38;18.33;;;5.30;99.90;;;;;;5132075;27;20190;-78
2022/01/19 03:13:30;;;;;;;32.53;18.67;;;5.20;99.90;;;;;;5143757;27;20262;-79
2022/01/19 03:15:57;;;;;;;34.58;18.58;;;5.10;99.90;;;;;;5141019;27;20195;-80
2022/01/19 03:18:25;;;;;;;33.03;15.68;;;5.10;99.90;;;;;;5125705;27;20203;-79
2022/01/19 03:20:53;;;;;;;32.72;16.48;;;5.20;99.90;;;;;;5121137;27;20246;-78
2022/01/19 03:23:22;;;;;;;30.48;16.80;;;5.20;99.90;;;;;;5121865;27;20207;-79
2022/01/19 03:25:52;;;;;;;36.13;18.80;;;5.20;99.90;;;;;;5120711;27;20217;-78
2022/01/19 03:28:20;;;;;;;40.95;17.85;;;5.20;99.90;;;;;;5120986;27;20223;-76
2022/01/19 03:30:48;;;;;;;34.13;17.00;;;5.20;99.90;;;;;;5121874;27;20236;-78
2022/01/19 03:33:17;;;;;;;30.17;16.05;;;5.20;99.90;;;;;;5121308;27;20199;-77
2022/01/19 03:35:46;;;;;;;32.45;18.48;;;5.20;99.90;;;;;;5121396;27;20203;-77
2022/01/19 03:38:14;;;;;;;35.28;17.65;;;5.20;99.90;;;;;;5120574;27;20222;-78
2022/01/19 03:40:43;;;;;;;33.03;18.27;;;5.20;99.90;;;;;;5120174;27;20446;-78
2022/01/19 03:43:11;;;;;;;40.47;19.60;;;5.20;99.90;;;;;;5124074;27;20487;-78
2022/01/19 03:45:39;;;;;;;32.72;17.52;;;5.20;99.90;;;;;;5119455;27;20199;-78
2022/01/19 03:48:19;;;;;;;39.55;17.35;;;5.20;99.90;;;;;;5120787;27;20249;-77
2022/01/19 03:50:47;;;;;;;28.42;15.25;;;5.20;99.90;;;;;;5120811;27;20207;-78
2022/01/19 03:53:15;;;;;;;30.65;15.02;;;5.30;99.90;;;;;;5120943;27;20585;-78
2022/01/19 03:55:44;;;;;;;32.25;17.10;;;5.20;99.90;;;;;;5120560;27;20199;-78
2022/01/19 03:58:12;;;;;;;36.83;16.55;;;5.30;99.90;;;;;;5121089;28;20697;-79
2022/01/19 04:00:42;;;;;;;28.58;16.10;;;5.20;99.90;;;;;;5121337;28;20574;-77
2022/01/19 04:03:15;;;;;;;27.23;14.20;;;5.20;99.90;;;;;;5121376;28;20577;-79
2022/01/19 04:05:54;;;;;;;31.33;16.55;;;5.30;99.90;;;;;;5121172;27;20206;-76
2022/01/19 04:08:22;;;;;;;32.67;17.50;;;5.30;99.90;;;;;;5123112;27;20230;-75
2022/01/19 04:10:52;;;;;;;30.10;16.02;;;5.30;99.90;;;;;;5125518;27;20209;-75
2022/01/19 04:13:32;;;;;;;33.17;16.08;;;5.20;99.90;;;;;;5126034;27;20198;-76
2022/01/19 04:16:00;;;;;;;30.63;17.20;;;5.20;99.90;;;;;;5123795;27;20202;-76
2022/01/19 04:18:28;;;;;;;30.95;16.45;;;5.20;99.90;;;;;;5124581;27;20195;-76
2022/01/19 04:20:56;;;;;;;37.47;16.42;;;5.20;99.90;;;;;;5123488;27;20202;-76
2022/01/19 04:23:24;;;;;;;35.35;17.50;;;5.20;99.90;;;;;;5123671;27;20229;-75
2022/01/19 04:25:53;;;;;;;36.05;17.27;;;5.20;99.90;;;;;;5124123;27;20206;-76
2022/01/19 04:28:21;;;;;;;36.28;17.13;;;5.10;99.90;;;;;;5124034;27;20590;-75
2022/01/19 04:30:49;;;;;;;31.40;16.58;;;5.10;99.90;;;;;;5124541;27;20264;-77
2022/01/19 04:33:22;;;;;;;30.63;16.35;;;5.10;99.90;;;;;;5125635;27;20282;-76
2022/01/19 04:35:53;;;;;;;28.15;16.23;;;5.10;99.90;;;;;;5126125;27;20290;-77
2022/01/19 04:39:17;;;;;;;36.10;19.02;;;5.10;99.90;;;;;;5125375;27;20223;-77
2022/01/19 04:44:39;;;;;;;32.35;17.35;;;5.10;99.90;;;;;;5126515;27;20206;-76
2022/01/19 04:47:59;;;;;;;31.02;17.92;;;5.10;99.90;;;;;;5126208;27;20222;-76
2022/01/19 05:01:43;;;;;;;30.70;15.55;;;5.20;99.90;;;;;;5124668;27;20229;-77
2022/01/19 05:04:24;;;;;;;36.47;19.58;;;5.20;99.90;;;;;;5124119;27;20206;-76
2022/01/19 05:07:05;;;;;;;35.05;19.77;;;5.20;99.90;;;;;;5125164;27;20227;-77
2022/01/19 05:09:55;;;;;;;38.65;18.45;;;5.20;99.90;;;;;;5125294;27;20230;-77
2022/01/19 05:15:11;;;;;;;32.00;18.33;;;5.20;99.90;;;;;;5124483;27;20203;-75
2022/01/19 05:17:39;;;;;;;35.53;19.38;;;5.30;99.90;;;;;;5125035;27;20218;-75
2022/01/19 05:20:09;;;;;;;31.30;17.70;;;5.20;99.90;;;;;;5124554;27;20223;-76
2022/01/19 05:22:37;;;;;;;38.95;20.80;;;5.20;99.90;;;;;;5124619;27;20524;-76
2022/01/19 05:25:05;;;;;;;27.63;17.77;;;5.10;99.90;;;;;;5123997;27;20205;-77
2022/01/19 05:27:33;;;;;;;30.48;14.90;;;5.10;99.90;;;;;;5124072;27;20219;-75
2022/01/19 05:30:01;;;;;;;32.58;17.88;;;5.10;99.90;;;;;;5123913;27;20217;-75
2022/01/19 05:32:31;;;;;;;32.45;17.08;;;5.20;99.90;;;;;;5123261;27;20191;-77
2022/01/19 05:34:59;;;;;;;32.70;18.88;;;5.20;99.90;;;;;;5127616;27;20589;-74
2022/01/19 05:37:26;;;;;;;34.58;17.77;;;5.20;99.90;;;;;;5122682;27;20229;-76
2022/01/19 05:39:54;;;;;;;31.50;15.48;;;5.10;99.90;;;;;;5123458;27;20195;-76
2022/01/19 05:42:23;;;;;;;26.65;15.48;;;5.10;99.90;;;;;;5142877;27;20246;-75
2022/01/19 05:44:50;;;;;;;27.67;14.98;;;5.10;99.90;;;;;;5136873;27;20195;-75
2022/01/19 05:47:18;;;;;;;29.00;13.98;;;5.10;99.90;;;;;;5124126;27;20454;-75
2022/01/19 05:49:48;;;;;;;23.30;12.43;;;5.00;99.90;;;;;;5122693;27;20662;-77
2022/01/19 05:52:15;;;;;;;21.67;13.13;;;5.00;99.90;;;;;;5122591;27;20207;-77
2022/01/19 05:54:43;;;;;;;26.98;12.00;;;5.00;99.90;;;;;;5122708;27;20210;-77
2022/01/19 05:57:11;;;;;;;19.40;11.20;;;5.00;99.90;;;;;;5122887;27;20219;-77
2022/01/19 05:59:39;;;;;;;23.83;12.60;;;5.00;99.90;;;;;;5121475;27;20687;-78
2022/01/19 06:02:07;;;;;;;30.08;13.30;;;5.00;99.90;;;;;;5123058;27;20199;-76
2022/01/19 06:04:35;;;;;;;29.20;14.55;;;5.00;99.90;;;;;;5122077;27;20595;-78
2022/01/19 06:07:05;;;;;;;24.90;13.77;;;4.90;99.90;;;;;;5122179;27;20222;-78
2022/01/19 06:09:47;;;;;;;25.48;12.98;;;4.90;99.90;;;;;;5122586;27;20229;-77
2022/01/19 06:12:16;;;;;;;29.02;14.18;;;4.90;99.90;;;;;;5122803;27;20650;-72
2022/01/19 06:14:45;;;;;;;22.77;12.43;;;4.90;99.90;;;;;;5121276;27;20199;-71
2022/01/19 06:17:15;;;;;;;28.75;11.95;;;4.90;99.90;;;;;;5122149;27;20232;-73
2022/01/19 06:19:44;;;;;;;30.75;14.98;;;5.00;99.90;;;;;;5123716;27;20203;-72
2022/01/19 06:22:14;;;;;;;28.48;16.92;;;5.00;99.90;;;;;;5121398;27;20442;-71
2022/01/19 06:24:42;;;;;;;26.05;14.02;;;5.10;99.90;;;;;;5121342;27;20209;-71
2022/01/19 06:27:10;;;;;;;33.72;15.02;;;5.10;99.90;;;;;;5126668;27;20423;-72
2022/01/19 06:29:38;;;;;;;30.88;15.65;;;5.10;99.90;;;;;;5136807;27;20230;-71
2022/01/19 06:32:07;;;;;;;34.00;17.95;;;5.20;99.90;;;;;;5134685;27;20225;-71
2022/01/19 06:34:35;;;;;;;40.83;18.65;;;5.20;99.90;;;;;;5135991;27;20527;-74
2022/01/19 06:37:04;;;;;;;42.88;20.02;;;5.20;99.90;;;;;;5135264;27;20215;-71
2022/01/19 06:39:33;;;;;;;38.97;19.00;;;5.20;99.90;;;;;;5122175;27;20290;-72
2022/01/19 06:42:00;;;;;;;46.25;20.75;;;5.30;99.90;;;;;;5122239;27;20203;-73
2022/01/19 06:44:28;;;;;;;45.47;21.63;;;5.30;99.90;;;;;;5121175;27;20241;-70
2022/01/19 06:46:59;;;;;;;41.00;23.17;;;5.30;99.90;;;;;;5121968;27;20211;-71
2022/01/19 06:49:27;;;;;;;44.45;23.52;;;5.30;99.90;;;;;;5121475;27;20448;-72
2022/01/19 06:51:55;;;;;;;43.53;24.30;;;5.40;99.90;;;;;;5121302;27;20211;-72
2022/01/19 06:54:23;;;;;;;49.03;25.85;;;5.40;99.90;;;;;;5120381;27;20191;-71
2022/01/19 06:56:52;;;;;;;54.72;26.65;;;5.50;99.90;;;;;;5121130;27;20223;-73
2022/01/19 06:59:20;;;;;;;43.30;19.77;;;5.50;99.90;;;;;;5120728;27;20207;-68
2022/01/19 07:01:47;;;;;;;57.25;27.13;;;5.60;99.90;;;;;;5121915;27;20610;-75
2022/01/19 07:04:17;;;;;;;61.30;28.13;;;5.70;99.90;;;;;;5123358;27;20283;-73
2022/01/19 07:06:45;;;;;;;62.15;26.80;;;5.80;99.90;;;;;;5120680;27;20369;-74
2022/01/19 07:09:12;;;;;;;61.70;26.70;;;5.90;99.90;;;;;;5121439;27;20195;-76
2022/01/19 07:11:40;;;;;;;59.78;27.08;;;6.00;99.90;;;;;;5121420;27;20195;-74
2022/01/19 07:14:12;;;;;;;63.60;27.90;;;6.00;99.90;;;;;;5122936;27;20202;-77
2022/01/19 07:16:40;;;;;;;56.17;26.90;;;6.10;99.90;;;;;;5124663;27;20329;-77
2022/01/19 07:19:08;;;;;;;46.10;24.95;;;6.10;99.90;;;;;;5124994;27;20274;-75
2022/01/19 07:21:38;;;;;;;57.65;28.90;;;6.10;99.90;;;;;;5128665;27;20195;-78
2022/01/19 07:24:07;;;;;;;55.17;27.08;;;6.10;99.90;;;;;;5124826;27;20335;-76
2022/01/19 07:26:35;;;;;;;53.03;26.83;;;6.00;99.90;;;;;;5123796;27;20262;-76
2022/01/19 07:29:03;;;;;;;58.13;27.13;;;5.90;99.90;;;;;;5125041;27;20199;-76
2022/01/19 07:31:32;;;;;;;53.50;28.05;;;5.80;99.90;;;;;;5127502;27;20203;-78
2022/01/19 07:34:00;;;;;;;53.78;25.10;;;5.80;99.90;;;;;;5128059;27;20290;-77
2022/01/19 07:36:29;;;;;;;49.70;25.70;;;5.70;99.90;;;;;;5131540;27;20246;-77
2022/01/19 07:38:57;;;;;;;45.00;25.75;;;5.70;99.90;;;;;;5145966;27;20420;-72
2022/01/19 07:41:25;;;;;;;61.55;28.67;;;5.80;99.90;;;;;;5143715;27;20540;-72
2022/01/19 07:43:53;;;;;;;56.83;27.20;;;5.80;99.90;;;;;;5141948;27;20219;-72
2022/01/19 07:46:21;;;;;;;53.70;29.27;;;5.90;99.90;;;;;;5140876;27;20221;-72
2022/01/19 07:48:50;;;;;;;58.55;27.30;;;5.90;99.90;;;;;;5140499;27;20202;-73
2022/01/19 07:51:18;;;;;;;52.22;26.00;;;5.90;99.90;;;;;;5140480;27;20210;-73
2022/01/19 07:53:47;;;;;;;50.03;27.08;;;5.90;99.90;;;;;;5140138;27;20200;-74
2022/01/19 07:56:15;;;;;;;54.17;26.95;;;5.80;99.90;;;;;;5140593;27;20209;-73
2022/01/19 07:58:43;;;;;;;59.10;27.30;;;5.80;99.90;;;;;;5140891;27;20206;-73
2022/01/19 08:01:11;;;;;;;51.97;25.20;;;5.90;99.90;;;;;;5141667;27;20198;-72
2022/01/19 08:03:40;;;;;;;50.17;26.15;;;5.90;99.90;;;;;;5140561;27;20229;-73
2022/01/19 08:06:09;;;;;;;53.10;26.00;;;5.90;99.90;;;;;;5140632;27;20344;-73
2022/01/19 08:08:37;;;;;;;50.78;25.95;;;5.80;99.90;;;;;;5140532;27;20583;-73
2022/01/19 08:11:05;;;;;;;57.58;27.80;;;5.70;99.90;;;;;;5160963;27;20198;-73
2022/01/19 08:13:33;;;;;;;48.92;27.23;;;5.70;99.90;;;;;;5153767;27;20510;-74
2022/01/19 08:16:01;;;;;;;56.88;26.30;;;5.70;99.90;;;;;;5139757;27;20208;-74
2022/01/19 08:18:29;;;;;;;59.90;27.73;;;5.70;99.90;;;;;;5140896;27;20204;-71
2022/01/19 08:20:57;;;;;;;58.63;26.63;;;5.70;99.90;;;;;;5139735;27;20209;-72
2022/01/19 08:23:27;;;;;;;54.90;26.13;;;5.70;99.90;;;;;;5139318;27;20263;-73
2022/01/19 08:25:55;;;;;;;56.13;27.52;;;5.70;99.90;;;;;;5121188;27;20191;-71
2022/01/19 08:28:22;;;;;;;50.83;25.90;;;5.70;99.90;;;;;;5119294;27;20693;-73
2022/01/19 08:30:50;;;;;;;55.03;28.50;;;5.60;99.90;;;;;;5119018;27;20195;-73
2022/01/19 08:33:18;;;;;;;55.42;26.17;;;5.50;99.90;;;;;;5118634;28;20395;-71
2022/01/19 08:35:46;;;;;;;51.35;24.88;;;5.50;99.90;;;;;;5118935;27;20210;-74
2022/01/19 08:38:14;;;;;;;56.70;25.70;;;5.40;99.90;;;;;;5118871;27;20218;-72
2022/01/19 08:40:43;;;;;;;53.22;25.75;;;5.40;99.90;;;;;;5119450;27;20191;-75
2022/01/19 08:43:11;;;;;;;50.03;25.33;;;5.40;99.90;;;;;;5119359;28;20214;-74
2022/01/19 08:45:39;;;;;;;47.95;25.98;;;5.40;99.90;;;;;;5119792;28;20562;-73
2022/01/19 08:48:07;;;;;;;54.95;28.63;;;5.40;99.90;;;;;;5120037;28;20215;-70
2022/01/19 08:50:35;;;;;;;53.10;27.42;;;5.50;99.90;;;;;;5119319;28;20299;-72
2022/01/19 08:53:04;;;;;;;52.03;27.48;;;5.40;99.90;;;;;;5118742;27;20213;-73
2022/01/19 08:55:32;;;;;;;54.75;27.15;;;5.50;99.90;;;;;;5121338;27;20219;-73
2022/01/19 08:58:01;;;;;;;48.67;27.50;;;5.50;99.90;;;;;;5122866;27;20733;-72
2022/01/19 09:00:32;;;;;;;52.45;27.08;;;5.50;99.90;;;;;;5123498;27;20209;-75
2022/01/19 09:03:00;;;;;;;50.35;27.27;;;5.60;99.90;;;;;;5122857;27;20542;-75
2022/01/19 09:05:28;;;;;;;50.47;27.92;;;5.50;99.90;;;;;;5122026;27;20706;-74
2022/01/19 09:07:56;;;;;;;60.08;28.23;;;5.50;99.90;;;;;;5122618;27;20237;-74
2022/01/19 09:10:25;;;;;;;62.35;29.80;;;5.60;99.90;;;;;;5122497;27;20298;-74
2022/01/19 09:12:54;;;;;;;51.35;25.48;;;5.50;99.90;;;;;;5140884;27;20285;-75
2022/01/19 09:15:23;;;;;;;42.70;25.10;;;5.50;99.90;;;;;;5122383;27;20216;-75
2022/01/19 09:17:52;;;;;;;64.80;28.40;;;5.60;99.90;;;;;;5106578;27;20216;-74
2022/01/19 09:20:20;;;;;;;52.22;27.25;;;5.70;99.90;;;;;;5123259;27;20209;-74
2022/01/19 09:22:49;;;;;;;49.22;27.67;;;5.80;99.90;;;;;;5116257;27;20287;-77
2022/01/19 09:25:17;;;;;;;50.30;26.10;;;5.80;99.90;;;;;;5101889;28;20471;-76
2022/01/19 09:27:45;;;;;;;49.55;24.98;;;5.90;99.90;;;;;;5104520;27;20218;-77
2022/01/19 09:30:16;;;;;;;50.30;25.35;;;5.90;99.90;;;;;;5122176;27;20203;-75
2022/01/19 09:32:54;;;;;;;54.33;26.77;;;6.00;99.90;;;;;;5121937;27;20197;-77
2022/01/19 09:35:25;;;;;;;50.20;24.33;;;6.10;99.90;;;;;;5122326;27;20681;-75
2022/01/19 09:37:54;;;;;;;57.38;27.15;;;6.10;99.90;;;;;;5122493;27;20220;-74
2022/01/19 09:40:36;;;;;;;49.28;25.30;;;6.10;99.90;;;;;;5124919;27;20628;-76
2022/01/19 09:43:09;;;;;;;51.95;25.50;;;6.20;99.90;;;;;;5123388;27;20214;-74
2022/01/19 09:45:39;;;;;;;59.55;25.98;;;6.10;99.90;;;;;;5122678;27;20223;-73
2022/01/19 09:48:08;;;;;;;51.03;27.27;;;6.10;99.90;;;;;;5118289;27;20303;-76
2022/01/19 09:50:36;;;;;;;50.00;26.27;;;6.10;99.90;;;;;;5106741;27;20203;-76
2022/01/19 09:53:05;;;;;;;50.00;26.50;;;6.10;99.90;;;;;;5122689;27;20947;-74
2022/01/19 09:55:38;;;;;;;48.03;24.83;;;6.10;99.90;;;;;;5121839;27;20527;-73
2022/01/19 09:58:06;;;;;;;61.38;28.25;;;6.20;99.90;;;;;;5122810;27;20249;-74
2022/01/19 10:00:35;;;;;;;46.97;25.50;;;6.20;99.90;;;;;;5121558;27;20199;-73
2022/01/19 10:03:16;;;;;;;52.45;26.25;;;6.20;99.90;;;;;;5121660;27;20857;-75
2022/01/19 10:05:55;;;;;;;55.72;28.08;;;6.20;99.90;;;;;;5122319;27;20222;-75
2022/01/19 10:08:27;;;;;;;57.17;27.50;;;6.20;99.90;;;;;;5123820;27;20224;-73
2022/01/19 10:11:15;;;;;;;49.15;27.42;;;6.30;99.90;;;;;;5123846;27;20842;-74
2022/01/19 10:17:01;;;;;;;53.33;27.77;;;6.30;99.90;;;;;;5123783;27;20219;-74
2022/01/19 10:19:32;;;;;;;49.58;26.75;;;6.30;99.90;;;;;;5125216;27;20688;-76
2022/01/19 10:22:13;;;;;;;53.22;27.67;;;6.20;99.90;;;;;;5123151;27;20202;-74
2022/01/19 10:24:48;;;;;;;46.72;26.50;;;6.10;99.90;;;;;;5123623;27;20222;-76
2022/01/19 10:27:28;;;;;;;57.42;26.13;;;6.10;99.90;;;;;;5123666;27;20218;-75
2022/01/19 10:30:12;;;;;;;53.50;27.85;;;6.20;99.90;;;;;;5122979;27;20242;-77
2022/01/19 10:32:42;;;;;;;51.33;26.17;;;6.30;99.90;;;;;;5122349;27;20203;-75
2022/01/19 10:35:17;;;;;;;46.17;22.85;;;6.20;99.90;;;;;;5109584;27;20196;-74
2022/01/19 10:37:47;;;;;;;43.30;26.00;;;6.10;99.90;;;;;;5101222;28;20225;-74
2022/01/19 10:40:18;;;;;;;49.80;25.00;;;6.10;99.90;;;;;;5101138;28;20204;-76
2022/01/19 10:42:47;;;;;;;43.28;24.38;;;6.20;99.90;;;;;;5100617;28;20207;-74
2022/01/19 10:45:16;;;;;;;47.33;24.25;;;6.20;99.90;;;;;;5100091;28;20250;-78
2022/01/19 10:47:47;;;;;;;49.92;26.27;;;6.20;99.90;;;;;;5100638;28;20710;-74
2022/01/19 10:50:22;;;;;;;47.00;25.63;;;6.20;99.90;;;;;;5101198;28;20207;-77
2022/01/19 10:52:51;;;;;;;52.78;26.25;;;6.30;99.90;;;;;;5100270;28;20227;-73
2022/01/19 10:55:30;;;;;;;45.97;25.77;;;6.30;99.90;;;;;;5099474;28;20191;-72
2022/01/19 10:57:59;;;;;;;50.38;25.85;;;6.30;99.90;;;;;;5099719;28;20727;-75
2022/01/19 11:00:29;;;;;;;46.95;25.80;;;6.20;99.90;;;;;;5104533;28;20195;-74
2022/01/19 11:02:59;;;;;;;46.28;26.50;;;6.00;99.90;;;;;;5102564;28;20206;-73
2022/01/19 11:05:47;;;;;;;46.10;24.80;;;5.90;99.90;;;;;;5102387;28;20725;-74
2022/01/19 11:08:17;;;;;;;46.45;25.60;;;5.90;99.90;;;;;;5101263;28;20219;-75
2022/01/19 11:10:48;;;;;;;46.17;26.75;;;5.90;99.90;;;;;;5101871;28;20216;-74
2022/01/19 11:13:25;;;;;;;42.20;25.15;;;6.00;99.90;;;;;;5099789;28;20390;-75
2022/01/19 11:15:53;;;;;;;46.45;26.92;;;6.00;99.90;;;;;;5099435;28;20199;-75
2022/01/19 11:18:22;;;;;;;44.95;27.33;;;5.90;99.90;;;;;;5099167;28;20280;-75
2022/01/19 11:20:52;;;;;;;51.90;29.05;;;5.90;99.90;;;;;;5099793;28;20291;-75
2022/01/19 11:23:29;;;;;;;48.63;27.48;;;5.80;99.90;;;;;;5111775;27;20286;-74
2022/01/19 11:26:00;;;;;;;55.95;26.90;;;5.80;99.90;;;;;;5119669;27;20229;-75
2022/01/19 11:28:34;;;;;;;52.53;26.55;;;5.90;99.90;;;;;;5120124;27;20209;-74
2022/01/19 11:31:05;;;;;;;42.40;25.90;;;5.80;99.90;;;;;;5121397;27;20840;-74
2022/01/19 11:33:41;;;;;;;44.70;26.45;;;5.90;99.90;;;;;;5120970;27;20218;-72
2022/01/19 11:36:23;;;;;;;47.70;25.85;;;6.00;99.90;;;;;;5121066;27;20231;-73
2022/01/19 11:39:04;;;;;;;53.90;26.48;;;5.90;99.90;;;;;;5120224;27;20241;-71
2022/01/19 11:41:45;;;;;;;50.03;27.98;;;5.70;99.90;;;;;;5121297;27;20203;-69
2022/01/19 11:44:18;;;;;;;50.58;27.20;;;5.60;99.90;;;;;;5121059;27;20242;-70
2022/01/19 11:46:48;;;;;;;50.92;27.30;;;5.50;99.90;;;;;;5135401;27;20223;-70
2022/01/19 11:49:19;;;;;;;56.22;27.35;;;5.50;99.90;;;;;;5139903;27;20187;-75
2022/01/19 11:51:56;;;;;;;54.05;29.95;;;5.40;99.90;;;;;;5130855;27;20297;-70
2022/01/19 11:54:31;;;;;;;54.15;28.52;;;5.40;99.90;;;;;;5122874;27;20185;-69
2022/01/19 11:57:13;;;;;;;55.00;26.85;;;5.30;99.90;;;;;;5121337;27;20213;-71
2022/01/19 12:00:12;;;;;;;54.60;27.08;;;5.30;99.90;;;;;;5121924;27;20312;-70
2022/01/19 12:02:53;;;;;;;50.45;27.80;;;5.20;99.90;;;;;;5120230;27;20220;-69
2022/01/19 12:05:42;;;;;;;49.20;26.25;;;5.10;99.90;;;;;;5119792;27;20225;-69
2022/01/19 12:08:26;;;;;;;49.72;25.63;;;5.10;99.90;;;;;;5120866;27;20215;-71
2022/01/19 12:10:58;;;;;;;48.22;27.00;;;5.00;99.90;;;;;;5120457;27;20574;-70
2022/01/19 12:13:44;;;;;;;45.50;26.35;;;5.10;99.90;;;;;;5120856;28;20203;-70
2022/01/19 12:16:28;;;;;;;46.42;25.00;;;5.00;99.90;;;;;;5121294;28;20201;-72
2022/01/19 12:19:13;;;;;;;44.40;26.67;;;5.00;99.90;;;;;;5119532;28;20202;-70
2022/01/19 12:21:45;;;;;;;49.72;25.30;;;4.90;99.90;;;;;;5119061;27;20209;-69
2022/01/19 12:24:36;;;;;;;54.35;26.30;;;4.90;99.90;;;;;;5120187;27;20199;-70
2022/01/19 12:27:11;;;;;;;49.58;25.83;;;4.90;99.90;;;;;;5117916;27;20290;-70
2022/01/19 12:29:45;;;;;;;56.30;27.77;;;4.90;99.90;;;;;;5116695;27;20278;-68
2022/01/19 12:32:33;;;;;;;60.83;28.77;;;5.00;99.90;;;;;;5123934;27;20198;-67
2022/01/19 12:35:12;;;;;;;54.50;27.55;;;5.00;99.90;;;;;;5124472;27;20748;-67
2022/01/19 12:37:43;;;;;;;48.03;27.30;;;5.00;99.90;;;;;;5123539;27;20772;-68
2022/01/19 12:40:36;;;;;;;55.80;26.63;;;5.00;99.90;;;;;;5128021;27;20804;-74
2022/01/19 12:43:07;;;;;;;47.38;25.38;;;5.10;99.90;;;;;;5124662;27;20230;-71
2022/01/19 12:45:45;;;;;;;46.67;29.17;;;5.10;99.90;;;;;;5124568;27;20241;-70
2022/01/19 12:48:14;;;;;;;49.78;28.52;;;5.00;99.90;;;;;;5124542;27;20211;-71
2022/01/19 12:50:47;;;;;;;43.65;28.13;;;5.00;99.90;;;;;;5124477;27;20203;-71
2022/01/19 12:53:21;;;;;;;46.33;26.27;;;5.10;99.90;;;;;;5124589;27;20378;-71
2022/01/19 12:55:54;;;;;;;48.65;27.75;;;5.10;99.90;;;;;;5126390;27;20281;-71
2022/01/19 12:58:26;;;;;;;46.05;25.92;;;5.00;99.90;;;;;;5126457;27;20225;-71
2022/01/19 13:00:56;;;;;;;40.03;25.20;;;5.10;99.90;;;;;;5125822;27;20922;-70
2022/01/19 13:03:29;;;;;;;43.53;26.42;;;5.10;99.90;;;;;;5124535;27;20271;-70
2022/01/19 13:06:02;;;;;;;45.92;26.50;;;5.20;99.90;;;;;;5124806;27;20206;-70
2022/01/19 13:08:48;;;;;;;46.67;26.30;;;5.20;99.90;;;;;;5128104;27;20290;-70
2022/01/19 13:11:24;;;;;;;43.30;26.23;;;5.30;99.90;;;;;;5124113;27;20259;-70
2022/01/19 13:13:56;;;;;;;48.85;27.50;;;5.20;99.90;;;;;;5123090;27;20205;-70
2022/01/19 13:16:42;;;;;;;41.70;25.48;;;5.20;99.90;;;;;;5123875;27;20215;-71
2022/01/19 13:19:14;;;;;;;45.08;26.15;;;5.10;99.90;;;;;;5122691;27;20199;-70
2022/01/19 13:21:44;;;;;;;43.78;27.13;;;5.10;99.90;;;;;;5122217;27;20209;-70
2022/01/19 13:24:18;;;;;;;49.80;28.65;;;5.10;99.90;;;;;;5122580;27;20199;-70
2022/01/19 13:26:50;;;;;;;47.00;27.70;;;5.20;99.90;;;;;;5121597;27;20219;-71
2022/01/19 13:29:23;;;;;;;51.15;27.77;;;5.20;99.90;;;;;;5122559;27;20225;-70
2022/01/19 13:32:07;;;;;;;46.92;27.80;;;5.30;99.90;;;;;;5122434;27;20203;-69
2022/01/19 13:34:49;;;;;;;45.63;27.50;;;5.30;99.90;;;;;;5122664;27;20198;-70
2022/01/19 13:37:18;;;;;;;44.03;28.65;;;5.40;99.90;;;;;;5121580;27;20222;-67
2022/01/19 13:39:55;;;;;;;43.25;26.48;;;5.40;99.90;;;;;;5122679;27;20198;-68
2022/01/19 13:42:39;;;;;;;49.28;28.17;;;5.30;99.90;;;;;;5121668;27;20204;-75
2022/01/19 13:45:13;;;;;;;45.65;27.50;;;5.30;99.90;;;;;;5122335;27;20813;-69
2022/01/19 13:47:56;;;;;;;61.35;30.60;;;5.30;99.90;;;;;;5122229;27;20302;-69
2022/01/19 13:50:24;;;;;;;48.78;29.08;;;5.30;99.90;;;;;;5122919;27;20700;-67
2022/01/19 13:52:52;;;;;;;49.13;27.73;;;5.30;99.90;;;;;;5123103;27;20277;-70
2022/01/19 13:55:22;;;;;;;47.95;26.08;;;5.30;99.90;;;;;;5133928;27;20215;-68